sensor_id;sensor_type;location;lat;lon;timestamp;temperature;humidity
10431;DHT22;5262;59.958;17.726;2023-05-07T00:01:35;-1.00;99.90
10431;DHT22;5262;59.958;17.726;2023-05-07T00:04:01;-1.00;99.90
10431;DHT22;5262;59.958;17.726;2023-05-07T00:06:27;-1.10;99.90
10431;DHT22;5262;59.958;17.726;2023-05-07T00:08:54;-1.10;99.90
10431;DHT22;5262;59.958;17.726;2023-05-07T00:11:20;-1.20;99.90
10431;DHT22;5262;59.958;17.726;2023-05-07T00:13:47;-1.20;99.90
10431;DHT22;5262;59.958;17.726;2023-05-07T00:16:13;-1.20;99.90
10431;DHT22;5262;59.958;17.726;2023-05-07T00:18:39;-1.20;99.90
10431;DHT22;5262;59.958;17.726;2023-05-07T00:21:05;-1.30;99.90
10431;DHT22;5262;59.958;17.726;2023-05-07T00:23:30;-1.30;99.90
10431;DHT22;5262;59.958;17.726;2023-05-07T00:25:56;-1.40;99.90
10431;DHT22;5262;59.958;17.726;2023-05-07T00:28:22;-1.40;99.90
10431;DHT22;5262;59.958;17.726;2023-05-07T00:30:47;-1.40;99.90
10431;DHT22;5262;59.958;17.726;2023-05-07T00:33:13;-1.40;99.90
10431;DHT22;5262;59.958;17.726;2023-05-07T00:35:38;-1.40;99.90
10431;DHT22;5262;59.958;17.726;2023-05-07T00:38:04;-1.40;99.90
10431;DHT22;5262;59.958;17.726;2023-05-07T00:40:30;-1.40;99.90
10431;DHT22;5262;59.958;17.726;2023-05-07T00:42:55;-1.40;99.90
10431;DHT22;5262;59.958;17.726;2023-05-07T00:45:28;-1.50;99.90
10431;DHT22;5262;59.958;17.726;2023-05-07T00:47:59;-1.50;99.90
10431;DHT22;5262;59.958;17.726;2023-05-07T00:50:26;-1.50;99.90
10431;DHT22;5262;59.958;17.726;2023-05-07T00:52:53;-1.40;99.90
10431;DHT22;5262;59.958;17.726;2023-05-07T00:55:18;-1.40;99.90
10431;DHT22;5262;59.958;17.726;2023-05-07T00:57:45;-1.50;99.90
10431;DHT22;5262;59.958;17.726;2023-05-07T01:00:11;-1.50;99.90
10431;DHT22;5262;59.958;17.726;2023-05-07T01:02:38;-1.50;99.90
10431;DHT22;5262;59.958;17.726;2023-05-07T01:05:05;-1.50;99.90
10431;DHT22;5262;59.958;17.726;2023-05-07T01:07:32;-1.60;99.90
10431;DHT22;5262;59.958;17.726;2023-05-07T01:09:59;-1.60;99.90
10431;DHT22;5262;59.958;17.726;2023-05-07T01:12:25;-1.60;99.90
10431;DHT22;5262;59.958;17.726;2023-05-07T01:14:52;-1.70;99.90
10431;DHT22;5262;59.958;17.726;2023-05-07T01:17:21;-1.70;99.90
10431;DHT22;5262;59.958;17.726;2023-05-07T01:19:47;-1.70;99.90
10431;DHT22;5262;59.958;17.726;2023-05-07T01:22:15;-1.70;99.90
10431;DHT22;5262;59.958;17.726;2023-05-07T01:24:42;-1.70;99.90
10431;DHT22;5262;59.958;17.726;2023-05-07T01:27:08;-1.80;99.90
10431;DHT22;5262;59.958;17.726;2023-05-07T01:29:34;-1.80;99.90
10431;DHT22;5262;59.958;17.726;2023-05-07T01:32:00;-1.80;99.90
10431;DHT22;5262;59.958;17.726;2023-05-07T01:34:28;-1.80;99.90
10431;DHT22;5262;59.958;17.726;2023-05-07T01:36:56;-1.80;99.90
10431;DHT22;5262;59.958;17.726;2023-05-07T01:39:27;-1.80;99.90
10431;DHT22;5262;59.958;17.726;2023-05-07T01:41:57;-1.80;99.90
10431;DHT22;5262;59.958;17.726;2023-05-07T01:44:25;-1.80;99.90
10431;DHT22;5262;59.958;17.726;2023-05-07T01:46:51;-1.90;99.90
10431;DHT22;5262;59.958;17.726;2023-05-07T01:49:17;-1.90;99.90
10431;DHT22;5262;59.958;17.726;2023-05-07T01:51:43;-1.90;99.90
10431;DHT22;5262;59.958;17.726;2023-05-07T01:54:09;-1.90;99.90
10431;DHT22;5262;59.958;17.726;2023-05-07T01:56:35;-2.00;99.90
10431;DHT22;5262;59.958;17.726;2023-05-07T01:59:01;-2.00;99.90
10431;DHT22;5262;59.958;17.726;2023-05-07T02:01:27;-2.00;99.90
10431;DHT22;5262;59.958;17.726;2023-05-07T02:03:53;-1.90;99.90
10431;DHT22;5262;59.958;17.726;2023-05-07T02:06:19;-1.80;99.90
10431;DHT22;5262;59.958;17.726;2023-05-07T02:08:45;-1.90;99.90
10431;DHT22;5262;59.958;17.726;2023-05-07T02:11:11;-1.90;99.90
10431;DHT22;5262;59.958;17.726;2023-05-07T02:13:37;-1.90;99.90
10431;DHT22;5262;59.958;17.726;2023-05-07T02:16:03;-2.00;99.90
10431;DHT22;5262;59.958;17.726;2023-05-07T02:18:29;-2.00;99.90
10431;DHT22;5262;59.958;17.726;2023-05-07T02:20:55;-2.10;99.90
10431;DHT22;5262;59.958;17.726;2023-05-07T02:23:21;-2.00;99.90
10431;DHT22;5262;59.958;17.726;2023-05-07T02:25:46;-2.10;99.90
10431;DHT22;5262;59.958;17.726;2023-05-07T02:28:12;-2.10;99.90
10431;DHT22;5262;59.958;17.726;2023-05-07T02:30:38;-2.10;99.90
10431;DHT22;5262;59.958;17.726;2023-05-07T02:33:04;-2.20;99.90
10431;DHT22;5262;59.958;17.726;2023-05-07T02:35:29;-2.20;99.90
10431;DHT22;5262;59.958;17.726;2023-05-07T02:37:55;-2.20;99.90
10431;DHT22;5262;59.958;17.726;2023-05-07T02:40:21;-2.20;99.90
10431;DHT22;5262;59.958;17.726;2023-05-07T02:42:46;-2.10;99.90
10431;DHT22;5262;59.958;17.726;2023-05-07T02:45:12;-2.10;99.90
10431;DHT22;5262;59.958;17.726;2023-05-07T02:47:38;-2.10;99.90
10431;DHT22;5262;59.958;17.726;2023-05-07T02:50:04;-2.10;99.90
10431;DHT22;5262;59.958;17.726;2023-05-07T02:52:30;-2.10;99.90
10431;DHT22;5262;59.958;17.726;2023-05-07T02:54:55;-2.10;99.90
10431;DHT22;5262;59.958;17.726;2023-05-07T02:57:21;-2.10;99.90
10431;DHT22;5262;59.958;17.726;2023-05-07T02:59:47;-2.10;99.90
10431;DHT22;5262;59.958;17.726;2023-05-07T03:02:12;-2.10;99.90
10431;DHT22;5262;59.958;17.726;2023-05-07T03:04:39;-2.20;99.90
10431;DHT22;5262;59.958;17.726;2023-05-07T03:07:05;-2.10;99.90
10431;DHT22;5262;59.958;17.726;2023-05-07T03:09:30;-2.10;99.90
10431;DHT22;5262;59.958;17.726;2023-05-07T03:11:56;-2.10;99.90
10431;DHT22;5262;59.958;17.726;2023-05-07T03:14:22;-2.10;99.90
10431;DHT22;5262;59.958;17.726;2023-05-07T03:16:49;-2.10;99.90
10431;DHT22;5262;59.958;17.726;2023-05-07T03:19:15;-2.00;99.90
10431;DHT22;5262;59.958;17.726;2023-05-07T03:21:40;-2.00;99.90
10431;DHT22;5262;59.958;17.726;2023-05-07T03:24:06;-1.80;99.90
10431;DHT22;5262;59.958;17.726;2023-05-07T03:26:31;-1.80;99.90
10431;DHT22;5262;59.958;17.726;2023-05-07T03:28:57;-1.80;99.90
10431;DHT22;5262;59.958;17.726;2023-05-07T03:31:23;-1.80;99.90
10431;DHT22;5262;59.958;17.726;2023-05-07T03:33:53;-1.80;99.90
10431;DHT22;5262;59.958;17.726;2023-05-07T03:36:19;-1.70;99.90
10431;DHT22;5262;59.958;17.726;2023-05-07T03:38:45;-1.60;99.90
10431;DHT22;5262;59.958;17.726;2023-05-07T03:41:11;-1.50;99.90
10431;DHT22;5262;59.958;17.726;2023-05-07T03:43:36;-1.50;99.90
10431;DHT22;5262;59.958;17.726;2023-05-07T03:46:02;-1.50;99.90
10431;DHT22;5262;59.958;17.726;2023-05-07T03:48:28;-1.20;99.90
10431;DHT22;5262;59.958;17.726;2023-05-07T03:50:53;-1.10;99.90
10431;DHT22;5262;59.958;17.726;2023-05-07T03:53:19;-0.90;99.90
10431;DHT22;5262;59.958;17.726;2023-05-07T03:55:44;-0.80;99.90
10431;DHT22;5262;59.958;17.726;2023-05-07T03:58:10;-0.80;99.90
10431;DHT22;5262;59.958;17.726;2023-05-07T04:00:35;-0.80;99.90
10431;DHT22;5262;59.958;17.726;2023-05-07T04:03:04;-0.90;99.90
10431;DHT22;5262;59.958;17.726;2023-05-07T04:05:30;-0.90;99.90
10431;DHT22;5262;59.958;17.726;2023-05-07T04:07:58;-1.00;99.90
10431;DHT22;5262;59.958;17.726;2023-05-07T04:10:24;-0.90;99.90
10431;DHT22;5262;59.958;17.726;2023-05-07T04:12:50;-0.80;99.90
10431;DHT22;5262;59.958;17.726;2023-05-07T04:15:15;-0.80;99.90
10431;DHT22;5262;59.958;17.726;2023-05-07T04:17:41;-0.70;99.90
10431;DHT22;5262;59.958;17.726;2023-05-07T04:20:09;-0.60;99.90
10431;DHT22;5262;59.958;17.726;2023-05-07T04:22:36;-0.50;99.90
10431;DHT22;5262;59.958;17.726;2023-05-07T04:25:03;-0.40;99.90
10431;DHT22;5262;59.958;17.726;2023-05-07T04:27:29;-0.20;99.90
10431;DHT22;5262;59.958;17.726;2023-05-07T04:29:55;-0.10;99.90
10431;DHT22;5262;59.958;17.726;2023-05-07T04:32:23;0.00;99.90
10431;DHT22;5262;59.958;17.726;2023-05-07T04:34:50;0.20;99.90
10431;DHT22;5262;59.958;17.726;2023-05-07T04:37:16;0.30;99.90
10431;DHT22;5262;59.958;17.726;2023-05-07T04:39:42;0.40;99.90
10431;DHT22;5262;59.958;17.726;2023-05-07T04:42:08;0.50;99.90
10431;DHT22;5262;59.958;17.726;2023-05-07T04:44:34;0.70;99.90
10431;DHT22;5262;59.958;17.726;2023-05-07T04:47:02;0.90;99.90
10431;DHT22;5262;59.958;17.726;2023-05-07T04:49:27;1.00;99.90
10431;DHT22;5262;59.958;17.726;2023-05-07T04:51:53;1.20;99.90
10431;DHT22;5262;59.958;17.726;2023-05-07T04:54:19;1.40;99.90
10431;DHT22;5262;59.958;17.726;2023-05-07T04:56:44;1.60;99.90
10431;DHT22;5262;59.958;17.726;2023-05-07T04:59:10;1.70;99.90
10431;DHT22;5262;59.958;17.726;2023-05-07T05:01:36;1.80;99.90
10431;DHT22;5262;59.958;17.726;2023-05-07T05:04:02;1.90;99.90
10431;DHT22;5262;59.958;17.726;2023-05-07T05:06:28;2.00;99.90
10431;DHT22;5262;59.958;17.726;2023-05-07T05:08:54;2.10;99.90
10431;DHT22;5262;59.958;17.726;2023-05-07T05:11:20;2.20;99.90
10431;DHT22;5262;59.958;17.726;2023-05-07T05:13:46;2.30;99.90
10431;DHT22;5262;59.958;17.726;2023-05-07T05:16:14;2.30;99.90
10431;DHT22;5262;59.958;17.726;2023-05-07T05:18:40;2.40;99.90
10431;DHT22;5262;59.958;17.726;2023-05-07T05:21:05;2.50;99.90
10431;DHT22;5262;59.958;17.726;2023-05-07T05:23:31;2.60;99.90
10431;DHT22;5262;59.958;17.726;2023-05-07T05:25:57;2.70;99.90
10431;DHT22;5262;59.958;17.726;2023-05-07T05:28:23;2.80;99.90
10431;DHT22;5262;59.958;17.726;2023-05-07T05:30:49;2.90;99.90
10431;DHT22;5262;59.958;17.726;2023-05-07T05:33:15;3.00;99.90
10431;DHT22;5262;59.958;17.726;2023-05-07T05:35:41;3.10;99.90
10431;DHT22;5262;59.958;17.726;2023-05-07T05:38:07;3.20;99.90
10431;DHT22;5262;59.958;17.726;2023-05-07T05:40:33;3.30;99.90
10431;DHT22;5262;59.958;17.726;2023-05-07T05:42:59;3.50;99.90
10431;DHT22;5262;59.958;17.726;2023-05-07T05:45:24;3.70;99.90
10431;DHT22;5262;59.958;17.726;2023-05-07T05:47:50;3.90;99.90
10431;DHT22;5262;59.958;17.726;2023-05-07T05:50:16;4.10;99.90
10431;DHT22;5262;59.958;17.726;2023-05-07T05:52:42;4.30;99.90
10431;DHT22;5262;59.958;17.726;2023-05-07T05:55:08;4.60;99.90
10431;DHT22;5262;59.958;17.726;2023-05-07T05:57:34;4.90;99.90
10431;DHT22;5262;59.958;17.726;2023-05-07T06:00:00;5.10;99.90
10431;DHT22;5262;59.958;17.726;2023-05-07T06:02:26;5.30;99.90
10431;DHT22;5262;59.958;17.726;2023-05-07T06:04:52;5.60;99.90
10431;DHT22;5262;59.958;17.726;2023-05-07T06:07:18;5.80;99.90
10431;DHT22;5262;59.958;17.726;2023-05-07T06:09:43;5.80;99.90
10431;DHT22;5262;59.958;17.726;2023-05-07T06:12:09;6.10;99.90
10431;DHT22;5262;59.958;17.726;2023-05-07T06:14:35;6.20;99.90
10431;DHT22;5262;59.958;17.726;2023-05-07T06:17:01;6.50;99.90
10431;DHT22;5262;59.958;17.726;2023-05-07T06:19:26;6.90;99.90
10431;DHT22;5262;59.958;17.726;2023-05-07T06:21:53;6.80;99.90
10431;DHT22;5262;59.958;17.726;2023-05-07T06:24:19;7.00;99.90
10431;DHT22;5262;59.958;17.726;2023-05-07T06:26:45;7.40;99.90
10431;DHT22;5262;59.958;17.726;2023-05-07T06:29:10;7.40;99.90
10431;DHT22;5262;59.958;17.726;2023-05-07T06:31:36;7.80;99.20
10431;DHT22;5262;59.958;17.726;2023-05-07T06:34:02;8.30;98.10
10431;DHT22;5262;59.958;17.726;2023-05-07T06:36:28;8.70;97.60
10431;DHT22;5262;59.958;17.726;2023-05-07T06:38:54;9.20;95.50
10431;DHT22;5262;59.958;17.726;2023-05-07T06:41:20;9.70;95.10
10431;DHT22;5262;59.958;17.726;2023-05-07T06:43:46;10.20;91.00
10431;DHT22;5262;59.958;17.726;2023-05-07T06:46:11;10.60;90.00
10431;DHT22;5262;59.958;17.726;2023-05-07T06:48:37;11.00;86.60
10431;DHT22;5262;59.958;17.726;2023-05-07T06:51:02;11.30;85.90
10431;DHT22;5262;59.958;17.726;2023-05-07T06:53:28;12.10;81.40
10431;DHT22;5262;59.958;17.726;2023-05-07T06:55:56;12.20;77.90
10431;DHT22;5262;59.958;17.726;2023-05-07T06:58:22;12.80;75.00
10431;DHT22;5262;59.958;17.726;2023-05-07T07:00:48;13.10;72.70
10431;DHT22;5262;59.958;17.726;2023-05-07T07:03:13;13.60;69.60
10431;DHT22;5262;59.958;17.726;2023-05-07T07:05:41;12.80;66.50
10431;DHT22;5262;59.958;17.726;2023-05-07T07:08:06;13.10;67.60
10431;DHT22;5262;59.958;17.726;2023-05-07T07:10:32;13.60;66.00
10431;DHT22;5262;59.958;17.726;2023-05-07T07:12:57;14.20;64.20
10431;DHT22;5262;59.958;17.726;2023-05-07T07:15:23;14.60;64.20
10431;DHT22;5262;59.958;17.726;2023-05-07T07:17:50;15.70;61.80
10431;DHT22;5262;59.958;17.726;2023-05-07T07:20:16;15.70;58.70
10431;DHT22;5262;59.958;17.726;2023-05-07T07:22:42;15.50;57.30
10431;DHT22;5262;59.958;17.726;2023-05-07T07:25:08;15.40;56.70
10431;DHT22;5262;59.958;17.726;2023-05-07T07:27:34;16.40;54.80
10431;DHT22;5262;59.958;17.726;2023-05-07T07:29:59;15.50;53.20
10431;DHT22;5262;59.958;17.726;2023-05-07T07:32:25;15.80;52.20
10431;DHT22;5262;59.958;17.726;2023-05-07T07:34:51;16.20;52.90
10431;DHT22;5262;59.958;17.726;2023-05-07T07:37:17;16.20;51.30
10431;DHT22;5262;59.958;17.726;2023-05-07T07:39:42;16.50;51.10
10431;DHT22;5262;59.958;17.726;2023-05-07T07:42:08;16.70;49.90
10431;DHT22;5262;59.958;17.726;2023-05-07T07:44:34;16.70;48.80
10431;DHT22;5262;59.958;17.726;2023-05-07T07:46:59;16.60;50.30
10431;DHT22;5262;59.958;17.726;2023-05-07T07:49:26;17.10;49.90
10431;DHT22;5262;59.958;17.726;2023-05-07T07:51:52;16.60;49.00
10431;DHT22;5262;59.958;17.726;2023-05-07T07:54:18;17.50;49.10
10431;DHT22;5262;59.958;17.726;2023-05-07T07:56:43;17.70;48.10
10431;DHT22;5262;59.958;17.726;2023-05-07T07:59:09;18.10;46.60
10431;DHT22;5262;59.958;17.726;2023-05-07T08:01:35;17.50;48.30
10431;DHT22;5262;59.958;17.726;2023-05-07T08:04:00;18.20;45.10
10431;DHT22;5262;59.958;17.726;2023-05-07T08:06:28;17.10;45.00
10431;DHT22;5262;59.958;17.726;2023-05-07T08:08:54;17.20;46.30
10431;DHT22;5262;59.958;17.726;2023-05-07T08:11:20;17.40;45.10
10431;DHT22;5262;59.958;17.726;2023-05-07T08:13:47;17.80;44.70
10431;DHT22;5262;59.958;17.726;2023-05-07T08:16:13;18.30;44.90
10431;DHT22;5262;59.958;17.726;2023-05-07T08:18:38;19.20;46.10
10431;DHT22;5262;59.958;17.726;2023-05-07T08:21:04;18.50;44.90
10431;DHT22;5262;59.958;17.726;2023-05-07T08:23:30;19.30;44.00
10431;DHT22;5262;59.958;17.726;2023-05-07T08:25:56;18.70;44.80
10431;DHT22;5262;59.958;17.726;2023-05-07T08:28:21;19.00;43.30
10431;DHT22;5262;59.958;17.726;2023-05-07T08:30:47;17.40;44.00
10431;DHT22;5262;59.958;17.726;2023-05-07T08:33:13;17.60;43.20
10431;DHT22;5262;59.958;17.726;2023-05-07T08:35:39;18.60;43.60
10431;DHT22;5262;59.958;17.726;2023-05-07T08:38:04;17.90;43.70
10431;DHT22;5262;59.958;17.726;2023-05-07T08:40:36;17.00;43.60
10431;DHT22;5262;59.958;17.726;2023-05-07T08:43:03;18.20;44.10
10431;DHT22;5262;59.958;17.726;2023-05-07T08:45:30;16.90;43.30
10431;DHT22;5262;59.958;17.726;2023-05-07T08:48:08;17.70;43.30
10431;DHT22;5262;59.958;17.726;2023-05-07T08:50:36;19.10;42.90
10431;DHT22;5262;59.958;17.726;2023-05-07T08:53:05;19.60;39.50
10431;DHT22;5262;59.958;17.726;2023-05-07T08:55:31;19.50;40.10
10431;DHT22;5262;59.958;17.726;2023-05-07T08:58:00;19.60;39.40
10431;DHT22;5262;59.958;17.726;2023-05-07T09:00:26;19.50;39.60
10431;DHT22;5262;59.958;17.726;2023-05-07T09:02:53;20.10;41.30
10431;DHT22;5262;59.958;17.726;2023-05-07T09:05:19;19.40;39.40
10431;DHT22;5262;59.958;17.726;2023-05-07T09:07:45;19.10;41.50
10431;DHT22;5262;59.958;17.726;2023-05-07T09:10:12;18.80;39.60
10431;DHT22;5262;59.958;17.726;2023-05-07T09:12:37;17.70;41.10
10431;DHT22;5262;59.958;17.726;2023-05-07T09:15:05;17.10;39.00
10431;DHT22;5262;59.958;17.726;2023-05-07T09:17:31;17.40;38.30
10431;DHT22;5262;59.958;17.726;2023-05-07T09:20:01;18.10;38.80
10431;DHT22;5262;59.958;17.726;2023-05-07T09:22:27;17.50;38.70
10431;DHT22;5262;59.958;17.726;2023-05-07T09:24:53;18.90;40.10
10431;DHT22;5262;59.958;17.726;2023-05-07T09:27:18;18.20;41.40
10431;DHT22;5262;59.958;17.726;2023-05-07T09:29:44;15.60;40.60
10431;DHT22;5262;59.958;17.726;2023-05-07T09:32:10;16.90;41.60
10431;DHT22;5262;59.958;17.726;2023-05-07T09:34:36;17.30;43.20
10431;DHT22;5262;59.958;17.726;2023-05-07T09:37:03;17.30;41.50
10431;DHT22;5262;59.958;17.726;2023-05-07T09:39:42;18.60;39.60
10431;DHT22;5262;59.958;17.726;2023-05-07T09:42:08;18.90;38.40
10431;DHT22;5262;59.958;17.726;2023-05-07T09:44:35;19.80;38.60
10431;DHT22;5262;59.958;17.726;2023-05-07T09:47:04;17.60;36.50
10431;DHT22;5262;59.958;17.726;2023-05-07T09:49:36;18.70;38.20
10431;DHT22;5262;59.958;17.726;2023-05-07T09:52:04;18.70;39.40
10431;DHT22;5262;59.958;17.726;2023-05-07T09:54:36;19.50;40.60
10431;DHT22;5262;59.958;17.726;2023-05-07T09:57:06;20.00;35.80
10431;DHT22;5262;59.958;17.726;2023-05-07T09:59:33;20.20;35.80
10431;DHT22;5262;59.958;17.726;2023-05-07T10:02:00;20.10;34.70
10431;DHT22;5262;59.958;17.726;2023-05-07T10:04:27;19.50;35.40
10431;DHT22;5262;59.958;17.726;2023-05-07T10:06:53;20.20;35.40
10431;DHT22;5262;59.958;17.726;2023-05-07T10:09:20;19.20;32.70
10431;DHT22;5262;59.958;17.726;2023-05-07T10:11:46;19.00;34.50
10431;DHT22;5262;59.958;17.726;2023-05-07T10:14:14;20.00;35.70
10431;DHT22;5262;59.958;17.726;2023-05-07T10:16:40;19.00;34.10
10431;DHT22;5262;59.958;17.726;2023-05-07T10:19:08;18.90;34.60
10431;DHT22;5262;59.958;17.726;2023-05-07T10:21:37;20.00;35.20
10431;DHT22;5262;59.958;17.726;2023-05-07T10:24:08;18.60;34.10
10431;DHT22;5262;59.958;17.726;2023-05-07T10:26:41;19.00;35.20
10431;DHT22;5262;59.958;17.726;2023-05-07T10:29:18;19.00;34.90
10431;DHT22;5262;59.958;17.726;2023-05-07T10:32:08;19.30;33.70
10431;DHT22;5262;59.958;17.726;2023-05-07T10:34:39;18.70;32.90
10431;DHT22;5262;59.958;17.726;2023-05-07T10:37:06;15.90;34.40
10431;DHT22;5262;59.958;17.726;2023-05-07T10:39:32;16.30;34.90
10431;DHT22;5262;59.958;17.726;2023-05-07T10:42:10;18.10;37.20
10431;DHT22;5262;59.958;17.726;2023-05-07T10:44:37;18.10;35.30
10431;DHT22;5262;59.958;17.726;2023-05-07T10:47:09;19.30;34.80
10431;DHT22;5262;59.958;17.726;2023-05-07T10:52:21;18.70;33.50
10431;DHT22;5262;59.958;17.726;2023-05-07T10:57:40;19.40;33.70
10431;DHT22;5262;59.958;17.726;2023-05-07T11:05:24;18.90;34.10
10431;DHT22;5262;59.958;17.726;2023-05-07T11:07:58;18.90;34.10
10431;DHT22;5262;59.958;17.726;2023-05-07T11:13:12;19.00;34.30
10431;DHT22;5262;59.958;17.726;2023-05-07T11:15:45;19.00;33.10
10431;DHT22;5262;59.958;17.726;2023-05-07T11:18:13;19.50;34.10
10431;DHT22;5262;59.958;17.726;2023-05-07T11:26:04;18.00;34.40
10431;DHT22;5262;59.958;17.726;2023-05-07T11:28:38;17.80;33.20
10431;DHT22;5262;59.958;17.726;2023-05-07T11:31:04;19.10;35.60
10431;DHT22;5262;59.958;17.726;2023-05-07T11:33:30;18.40;34.70
10431;DHT22;5262;59.958;17.726;2023-05-07T11:35:57;19.10;35.10
10431;DHT22;5262;59.958;17.726;2023-05-07T11:38:23;19.20;34.70
10431;DHT22;5262;59.958;17.726;2023-05-07T11:40:59;18.70;33.90
10431;DHT22;5262;59.958;17.726;2023-05-07T11:43:30;17.60;34.20
10431;DHT22;5262;59.958;17.726;2023-05-07T11:46:08;17.00;36.80
10431;DHT22;5262;59.958;17.726;2023-05-07T11:48:34;16.90;37.20
10431;DHT22;5262;59.958;17.726;2023-05-07T11:51:04;17.40;36.50
10431;DHT22;5262;59.958;17.726;2023-05-07T11:53:38;16.50;37.50
10431;DHT22;5262;59.958;17.726;2023-05-07T11:56:13;16.40;37.30
10431;DHT22;5262;59.958;17.726;2023-05-07T11:58:40;17.00;37.00
10431;DHT22;5262;59.958;17.726;2023-05-07T12:01:08;16.90;38.30
10431;DHT22;5262;59.958;17.726;2023-05-07T12:03:40;15.70;36.80
10431;DHT22;5262;59.958;17.726;2023-05-07T12:06:08;15.80;39.30
10431;DHT22;5262;59.958;17.726;2023-05-07T12:08:36;16.10;38.40
10431;DHT22;5262;59.958;17.726;2023-05-07T12:11:03;16.90;37.70
10431;DHT22;5262;59.958;17.726;2023-05-07T12:13:29;17.20;38.40
10431;DHT22;5262;59.958;17.726;2023-05-07T12:15:56;17.20;37.30
10431;DHT22;5262;59.958;17.726;2023-05-07T12:18:23;16.90;37.40
10431;DHT22;5262;59.958;17.726;2023-05-07T12:20:49;16.80;37.80
10431;DHT22;5262;59.958;17.726;2023-05-07T12:23:15;15.80;39.30
10431;DHT22;5262;59.958;17.726;2023-05-07T12:25:42;15.90;40.80
10431;DHT22;5262;59.958;17.726;2023-05-07T12:28:16;16.60;39.30
10431;DHT22;5262;59.958;17.726;2023-05-07T12:30:43;16.50;37.90
10431;DHT22;5262;59.958;17.726;2023-05-07T12:33:10;16.60;40.60
10431;DHT22;5262;59.958;17.726;2023-05-07T12:35:42;15.70;38.60
10431;DHT22;5262;59.958;17.726;2023-05-07T12:38:10;15.50;41.80
10431;DHT22;5262;59.958;17.726;2023-05-07T12:43:03;16.20;40.70
10431;DHT22;5262;59.958;17.726;2023-05-07T12:45:29;15.80;40.60
10431;DHT22;5262;59.958;17.726;2023-05-07T12:47:54;15.70;40.50
10431;DHT22;5262;59.958;17.726;2023-05-07T12:50:20;16.10;40.70
10431;DHT22;5262;59.958;17.726;2023-05-07T12:52:48;16.00;38.60
10431;DHT22;5262;59.958;17.726;2023-05-07T12:55:15;15.90;40.10
10431;DHT22;5262;59.958;17.726;2023-05-07T12:57:43;15.30;41.60
10431;DHT22;5262;59.958;17.726;2023-05-07T13:00:09;15.30;41.90
10431;DHT22;5262;59.958;17.726;2023-05-07T13:02:40;16.30;39.30
10431;DHT22;5262;59.958;17.726;2023-05-07T13:05:06;16.60;39.80
10431;DHT22;5262;59.958;17.726;2023-05-07T13:07:32;16.00;38.90
10431;DHT22;5262;59.958;17.726;2023-05-07T13:09:58;16.30;40.10
10431;DHT22;5262;59.958;17.726;2023-05-07T13:12:23;16.20;41.40
10431;DHT22;5262;59.958;17.726;2023-05-07T13:14:49;16.00;38.80
10431;DHT22;5262;59.958;17.726;2023-05-07T13:17:17;15.80;39.90
10431;DHT22;5262;59.958;17.726;2023-05-07T13:19:44;15.50;42.10
10431;DHT22;5262;59.958;17.726;2023-05-07T13:22:09;15.50;41.10
10431;DHT22;5262;59.958;17.726;2023-05-07T13:24:35;15.00;41.20
10431;DHT22;5262;59.958;17.726;2023-05-07T13:27:00;14.30;40.70
10431;DHT22;5262;59.958;17.726;2023-05-07T13:29:26;15.30;41.60
10431;DHT22;5262;59.958;17.726;2023-05-07T13:31:56;15.60;38.90
10431;DHT22;5262;59.958;17.726;2023-05-07T13:34:22;15.50;38.50
10431;DHT22;5262;59.958;17.726;2023-05-07T13:36:48;15.60;38.60
10431;DHT22;5262;59.958;17.726;2023-05-07T13:39:14;15.60;38.90
10431;DHT22;5262;59.958;17.726;2023-05-07T13:41:39;15.40;38.10
10431;DHT22;5262;59.958;17.726;2023-05-07T13:44:05;15.40;38.40
10431;DHT22;5262;59.958;17.726;2023-05-07T13:46:31;15.60;40.00
10431;DHT22;5262;59.958;17.726;2023-05-07T13:48:56;15.10;38.50
10431;DHT22;5262;59.958;17.726;2023-05-07T13:51:22;15.30;40.60
10431;DHT22;5262;59.958;17.726;2023-05-07T13:53:48;15.60;40.10
10431;DHT22;5262;59.958;17.726;2023-05-07T13:56:14;15.70;38.60
10431;DHT22;5262;59.958;17.726;2023-05-07T13:58:40;15.40;37.50
10431;DHT22;5262;59.958;17.726;2023-05-07T14:01:06;15.20;39.80
10431;DHT22;5262;59.958;17.726;2023-05-07T14:03:31;14.20;41.00
10431;DHT22;5262;59.958;17.726;2023-05-07T14:05:59;13.90;41.40
10431;DHT22;5262;59.958;17.726;2023-05-07T14:08:27;14.00;42.50
10431;DHT22;5262;59.958;17.726;2023-05-07T14:10:53;14.00;42.90
10431;DHT22;5262;59.958;17.726;2023-05-07T14:13:19;14.50;41.20
10431;DHT22;5262;59.958;17.726;2023-05-07T14:15:45;14.70;40.50
10431;DHT22;5262;59.958;17.726;2023-05-07T14:18:15;14.80;40.60
10431;DHT22;5262;59.958;17.726;2023-05-07T14:20:41;15.00;41.00
10431;DHT22;5262;59.958;17.726;2023-05-07T14:23:09;15.10;40.40
10431;DHT22;5262;59.958;17.726;2023-05-07T14:25:35;14.70;41.60
10431;DHT22;5262;59.958;17.726;2023-05-07T14:28:00;15.00;44.80
10431;DHT22;5262;59.958;17.726;2023-05-07T14:30:26;15.10;42.10
10431;DHT22;5262;59.958;17.726;2023-05-07T14:32:51;14.90;40.90
10431;DHT22;5262;59.958;17.726;2023-05-07T14:35:17;14.90;41.80
10431;DHT22;5262;59.958;17.726;2023-05-07T14:37:43;14.50;41.30
10431;DHT22;5262;59.958;17.726;2023-05-07T14:40:09;14.20;41.60
10431;DHT22;5262;59.958;17.726;2023-05-07T14:42:35;14.10;41.90
10431;DHT22;5262;59.958;17.726;2023-05-07T14:45:01;14.20;42.50
10431;DHT22;5262;59.958;17.726;2023-05-07T14:47:26;14.30;42.70
10431;DHT22;5262;59.958;17.726;2023-05-07T14:49:52;14.40;43.00
10431;DHT22;5262;59.958;17.726;2023-05-07T14:52:18;14.00;42.30
10431;DHT22;5262;59.958;17.726;2023-05-07T14:54:44;13.90;43.10
10431;DHT22;5262;59.958;17.726;2023-05-07T14:57:10;14.20;43.20
10431;DHT22;5262;59.958;17.726;2023-05-07T14:59:39;14.40;42.30
10431;DHT22;5262;59.958;17.726;2023-05-07T15:02:05;14.10;42.00
10431;DHT22;5262;59.958;17.726;2023-05-07T15:04:33;14.30;42.20
10431;DHT22;5262;59.958;17.726;2023-05-07T15:06:59;14.20;42.50
10431;DHT22;5262;59.958;17.726;2023-05-07T15:09:25;14.10;41.60
10431;DHT22;5262;59.958;17.726;2023-05-07T15:11:51;14.20;44.10
10431;DHT22;5262;59.958;17.726;2023-05-07T15:14:17;13.90;43.50
10431;DHT22;5262;59.958;17.726;2023-05-07T15:16:43;14.30;44.10
10431;DHT22;5262;59.958;17.726;2023-05-07T15:19:08;14.70;41.40
10431;DHT22;5262;59.958;17.726;2023-05-07T15:21:34;14.50;44.20
10431;DHT22;5262;59.958;17.726;2023-05-07T15:24:02;14.70;40.30
10431;DHT22;5262;59.958;17.726;2023-05-07T15:26:27;14.80;42.00
10431;DHT22;5262;59.958;17.726;2023-05-07T15:28:53;14.40;42.10
10431;DHT22;5262;59.958;17.726;2023-05-07T15:31:21;14.30;42.70
10431;DHT22;5262;59.958;17.726;2023-05-07T15:33:47;14.50;40.60
10431;DHT22;5262;59.958;17.726;2023-05-07T15:36:13;14.50;41.30
10431;DHT22;5262;59.958;17.726;2023-05-07T15:38:39;14.20;42.20
10431;DHT22;5262;59.958;17.726;2023-05-07T15:41:05;14.30;42.30
10431;DHT22;5262;59.958;17.726;2023-05-07T15:43:31;14.10;42.80
10431;DHT22;5262;59.958;17.726;2023-05-07T15:45:56;14.30;41.00
10431;DHT22;5262;59.958;17.726;2023-05-07T15:48:22;14.20;40.90
10431;DHT22;5262;59.958;17.726;2023-05-07T15:50:48;14.30;41.00